Time;durP1;ratioP1;P1;durP2;ratioP2;P2;SDS_P1;SDS_P2;PMS_P1;PMS_P2;Temp;Humidity;BMP_temperature;BMP_pressure;BME280_temperature;BME280_humidity;BME280_pressure;Samples;Min_cycle;Max_cycle;Signal;HPM_P1;HPM_P2
2023/04/30 04:05:28;;;;;;;2.97;2.78;;;11.10;99.90;;;;;;5362718;23;20232;-68
2023/04/30 04:07:53;;;;;;;3.17;2.88;;;11.20;99.90;;;;;;4955666;29;20222;-68
2023/04/30 04:10:19;;;;;;;3.53;3.23;;;11.10;99.90;;;;;;4955841;29;20202;-68
2023/04/30 04:12:45;;;;;;;2.90;2.70;;;11.10;99.90;;;;;;4955628;29;20178;-68
2023/04/30 04:15:11;;;;;;;3.47;3.17;;;11.20;99.90;;;;;;4938109;29;20197;-68
2023/04/30 04:17:36;;;;;;;4.00;3.70;;;11.20;99.90;;;;;;4955315;29;20184;-68
2023/04/30 04:20:04;;;;;;;2.73;2.50;;;11.20;99.90;;;;;;4955261;29;20221;-68
2023/04/30 04:22:30;;;;;;;4.03;3.33;;;11.20;99.90;;;;;;4955513;29;20247;-69
2023/04/30 04:24:56;;;;;;;3.73;3.43;;;11.30;99.90;;;;;;4954675;29;20545;-68
2023/04/30 04:27:22;;;;;;;2.83;2.53;;;11.30;99.90;;;;;;4955128;29;20177;-68
2023/04/30 04:29:48;;;;;;;3.60;3.10;;;11.30;99.90;;;;;;4955544;29;20165;-68
2023/04/30 04:32:14;;;;;;;6.50;3.90;;;11.30;99.90;;;;;;4955122;29;20173;-68
2023/04/30 04:34:41;;;;;;;4.63;3.00;;;11.30;99.90;;;;;;4953992;29;20995;-68
2023/04/30 04:37:07;;;;;;;3.90;3.60;;;11.30;99.90;;;;;;4954435;29;20415;-68
2023/04/30 04:39:32;;;;;;;3.20;2.53;;;11.30;99.90;;;;;;4938048;29;20195;-68
2023/04/30 04:41:58;;;;;;;3.33;3.00;;;11.30;99.90;;;;;;4955140;29;20238;-69
2023/04/30 04:44:24;;;;;;;4.00;3.70;;;11.40;99.90;;;;;;4954673;29;20279;-68
2023/04/30 04:46:52;;;;;;;3.30;3.07;;;11.40;99.90;;;;;;4955196;29;20655;-68
2023/04/30 04:49:18;;;;;;;4.47;4.07;;;11.40;99.90;;;;;;4955231;29;20525;-68
2023/04/30 04:51:44;;;;;;;4.07;3.67;;;11.40;99.90;;;;;;4955268;29;20205;-67
2023/04/30 04:54:09;;;;;;;3.13;2.67;;;11.50;99.90;;;;;;4954792;29;20216;-67
2023/04/30 04:56:35;;;;;;;5.27;3.20;;;11.50;99.90;;;;;;4955093;29;20501;-68
2023/04/30 04:59:01;;;;;;;8.20;3.57;;;11.50;99.90;;;;;;4955045;29;20181;-68
2023/04/30 05:01:26;;;;;;;4.63;3.00;;;11.60;99.90;;;;;;4955165;29;20637;-68
2023/04/30 05:03:53;;;;;;;3.67;3.33;;;11.60;99.90;;;;;;4954793;29;20206;-68
2023/04/30 05:06:18;;;;;;;4.47;2.70;;;11.60;99.90;;;;;;4946025;29;20274;-68
2023/04/30 05:08:44;;;;;;;3.30;2.93;;;11.70;99.90;;;;;;4947692;29;20451;-68
2023/04/30 05:11:11;;;;;;;5.23;4.73;;;11.70;99.90;;;;;;4954872;29;20164;-68
2023/04/30 05:13:36;;;;;;;3.90;3.60;;;11.80;99.90;;;;;;4954706;29;20419;-69
2023/04/30 05:16:03;;;;;;;5.60;3.43;;;11.90;99.90;;;;;;4954939;28;20440;-69
2023/04/30 05:18:28;;;;;;;3.83;3.20;;;12.00;99.90;;;;;;4954908;29;20191;-69
2023/04/30 05:20:54;;;;;;;3.97;3.50;;;12.10;99.90;;;;;;4954279;29;20794;-69
2023/04/30 05:23:19;;;;;;;3.73;3.03;;;12.20;99.90;;;;;;4954609;29;20254;-69
2023/04/30 05:25:50;;;;;;;3.63;3.23;;;12.30;99.90;;;;;;4955011;28;20196;-69
2023/04/30 05:28:16;;;;;;;5.00;3.87;;;12.50;99.90;;;;;;4955051;29;20175;-69
2023/04/30 05:30:42;;;;;;;3.30;2.77;;;12.60;99.90;;;;;;4954755;29;20449;-68
2023/04/30 05:33:07;;;;;;;6.20;3.43;;;12.80;99.90;;;;;;4954613;29;20266;-69
2023/04/30 05:35:34;;;;;;;2.40;2.20;;;12.90;99.90;;;;;;4946833;28;20272;-69
2023/04/30 05:38:01;;;;;;;4.10;3.40;;;13.00;99.90;;;;;;4935711;29;20174;-69
2023/04/30 05:40:28;;;;;;;4.43;3.20;;;13.10;99.90;;;;;;4935469;29;20391;-68
2023/04/30 05:42:53;;;;;;;4.03;3.73;;;13.10;99.90;;;;;;4935617;29;20835;-69
2023/04/30 05:45:19;;;;;;;4.07;3.20;;;13.10;99.90;;;;;;4935211;29;20466;-68
2023/04/30 05:47:44;;;;;;;4.20;3.50;;;13.20;99.90;;;;;;4935498;29;20173;-67
2023/04/30 05:50:10;;;;;;;3.87;3.30;;;13.20;99.90;;;;;;4939255;29;20177;-68
2023/04/30 05:52:36;;;;;;;4.13;3.73;;;13.30;99.90;;;;;;4939061;29;20176;-68
2023/04/30 05:55:01;;;;;;;3.87;3.10;;;13.40;99.90;;;;;;4938529;29;20203;-69
2023/04/30 05:57:27;;;;;;;3.07;2.80;;;13.40;99.90;;;;;;4939236;29;20174;-69
2023/04/30 05:59:53;;;;;;;3.70;3.40;;;13.40;99.90;;;;;;4938840;29;20177;-69
2023/04/30 06:02:19;;;;;;;3.90;3.37;;;13.50;99.90;;;;;;4938924;29;20416;-69
2023/04/30 06:04:44;;;;;;;3.63;3.33;;;13.50;99.90;;;;;;4938522;29;20208;-68
2023/04/30 06:07:10;;;;;;;3.60;3.30;;;13.50;99.90;;;;;;4938599;29;20277;-69
2023/04/30 06:09:35;;;;;;;4.00;3.13;;;13.70;99.90;;;;;;4938631;29;20178;-69
2023/04/30 06:12:02;;;;;;;3.17;2.87;;;13.90;99.90;;;;;;4938961;29;20543;-68
2023/04/30 06:14:28;;;;;;;4.30;3.03;;;14.10;99.90;;;;;;4921213;29;20208;-69
2023/04/30 06:16:53;;;;;;;4.43;3.90;;;14.30;99.90;;;;;;4938789;29;20381;-69
2023/04/30 06:19:19;;;;;;;4.73;3.00;;;14.60;99.90;;;;;;4938762;29;20308;-69
2023/04/30 06:21:45;;;;;;;3.67;3.37;;;14.80;99.90;;;;;;4928525;29;20549;-68
2023/04/30 06:24:11;;;;;;;4.50;3.20;;;15.10;99.90;;;;;;4937887;29;20465;-69
2023/04/30 06:26:36;;;;;;;4.77;3.63;;;15.20;99.90;;;;;;4938587;29;20186;-70
2023/04/30 06:29:02;;;;;;;2.93;2.73;;;15.30;99.90;;;;;;4938361;29;20527;-69
2023/04/30 06:31:28;;;;;;;3.80;3.43;;;15.40;99.90;;;;;;4938387;29;20176;-69
2023/04/30 06:33:53;;;;;;;4.70;3.73;;;15.50;99.90;;;;;;4920675;29;20251;-69
2023/04/30 06:36:19;;;;;;;3.40;2.80;;;15.60;99.90;;;;;;4938353;29;20202;-69
2023/04/30 06:38:46;;;;;;;3.60;3.23;;;15.60;99.90;;;;;;4938165;29;20178;-69
2023/04/30 06:41:12;;;;;;;5.20;3.60;;;15.70;99.90;;;;;;4938092;29;20258;-69
2023/04/30 06:43:37;;;;;;;4.23;3.83;;;15.80;99.90;;;;;;4937599;29;21005;-69
2023/04/30 06:46:04;;;;;;;3.97;3.33;;;16.00;99.90;;;;;;4938027;29;20422;-70
2023/04/30 06:48:29;;;;;;;4.67;4.27;;;16.20;99.90;;;;;;4938174;29;20185;-69
2023/04/30 06:50:56;;;;;;;3.03;2.77;;;16.60;99.90;;;;;;4937730;29;20501;-69
2023/04/30 06:53:21;;;;;;;3.77;3.47;;;16.80;99.90;;;;;;4937694;29;20626;-70
2023/04/30 06:55:47;;;;;;;4.50;3.60;;;17.00;99.90;;;;;;4937974;29;20933;-69
2023/04/30 06:58:13;;;;;;;2.40;2.20;;;17.00;99.90;;;;;;4937913;29;20189;-69
2023/04/30 07:00:39;;;;;;;3.53;3.23;;;17.10;99.90;;;;;;4937088;29;20884;-71
2023/04/30 07:03:05;;;;;;;3.47;3.00;;;17.20;99.90;;;;;;4937176;29;20443;-71
2023/04/30 07:05:31;;;;;;;4.40;4.00;;;17.40;99.90;;;;;;4937469;29;20799;-70
2023/04/30 07:08:00;;;;;;;3.83;3.50;;;17.60;99.90;;;;;;4937860;29;20213;-70
2023/04/30 07:10:26;;;;;;;2.90;2.77;;;17.50;99.90;;;;;;4937654;29;20737;-70
2023/04/30 07:12:52;;;;;;;2.70;2.50;;;17.80;99.90;;;;;;4937461;29;20463;-69
2023/04/30 07:15:17;;;;;;;3.20;2.87;;;18.20;99.80;;;;;;4936943;29;20404;-69
2023/04/30 07:17:43;;;;;;;2.43;2.23;;;18.40;99.20;;;;;;4937754;29;20181;-69
2023/04/30 07:20:09;;;;;;;6.10;3.20;;;18.50;98.60;;;;;;4937410;29;20178;-69
2023/04/30 07:22:35;;;;;;;3.27;3.07;;;18.50;98.10;;;;;;4937332;29;20172;-68
2023/04/30 07:25:01;;;;;;;2.47;2.33;;;18.60;98.00;;;;;;4936807;29;20552;-67
2023/04/30 07:27:27;;;;;;;2.70;2.50;;;18.70;97.50;;;;;;4937632;29;20260;-68
2023/04/30 07:29:54;;;;;;;2.60;2.40;;;18.90;97.20;;;;;;4937283;29;20180;-68
2023/04/30 07:32:20;;;;;;;4.37;3.23;;;19.00;96.30;;;;;;4937318;29;20769;-68
2023/04/30 07:34:45;;;;;;;3.30;2.40;;;19.30;96.20;;;;;;4936646;29;20437;-69
2023/04/30 07:37:11;;;;;;;3.03;2.80;;;19.90;96.10;;;;;;4937060;29;20862;-69
2023/04/30 07:39:37;;;;;;;3.00;2.70;;;20.70;95.20;;;;;;4936986;29;20198;-68
2023/04/30 07:42:03;;;;;;;2.80;2.60;;;21.10;94.10;;;;;;4948689;29;20185;-68
2023/04/30 07:44:29;;;;;;;2.97;2.60;;;21.20;93.10;;;;;;4947667;29;20233;-68
2023/04/30 07:46:55;;;;;;;2.70;2.50;;;21.40;92.30;;;;;;4937015;29;20463;-68
2023/04/30 07:49:21;;;;;;;2.73;2.53;;;21.70;91.90;;;;;;4936975;29;21001;-69
2023/04/30 07:51:47;;;;;;;3.80;2.87;;;22.10;91.80;;;;;;4936938;29;20172;-70
2023/04/30 07:54:12;;;;;;;2.83;2.63;;;22.90;90.60;;;;;;4919211;29;20667;-69
2023/04/30 07:56:38;;;;;;;3.07;2.60;;;23.30;88.70;;;;;;4936613;29;20436;-68
2023/04/30 07:59:04;;;;;;;3.50;3.20;;;23.40;86.10;;;;;;4936582;29;20581;-69
2023/04/30 08:01:30;;;;;;;3.03;2.83;;;23.60;87.60;;;;;;4936848;29;20624;-68
2023/04/30 08:03:56;;;;;;;2.80;2.60;;;23.90;85.40;;;;;;4936032;29;20552;-69
2023/04/30 08:06:22;;;;;;;3.90;3.17;;;24.40;84.70;;;;;;4919304;29;20200;-68
2023/04/30 08:08:48;;;;;;;2.97;2.70;;;25.00;82.50;;;;;;4936433;29;20200;-69
2023/04/30 08:11:14;;;;;;;3.10;2.87;;;25.60;81.40;;;;;;4936622;29;20461;-70
2023/04/30 08:13:41;;;;;;;3.50;3.00;;;26.00;77.70;;;;;;4936269;29;20670;-69
2023/04/30 08:16:06;;;;;;;3.30;3.00;;;25.70;77.90;;;;;;4936511;29;20440;-69
2023/04/30 08:18:32;;;;;;;2.93;2.63;;;25.10;77.70;;;;;;4936374;29;20483;-69
2023/04/30 08:20:59;;;;;;;2.70;2.50;;;25.00;78.00;;;;;;4936489;29;20185;-69
2023/04/30 08:23:25;;;;;;;2.53;2.10;;;24.80;75.90;;;;;;4926067;29;20208;-69
2023/04/30 08:25:51;;;;;;;2.53;2.33;;;24.40;78.50;;;;;;4955371;28;20822;-69
2023/04/30 08:28:17;;;;;;;2.40;2.27;;;24.00;77.20;;;;;;4955644;29;20528;-69
2023/04/30 08:30:43;;;;;;;2.67;2.47;;;23.20;77.60;;;;;;4955487;29;20397;-69
2023/04/30 08:33:08;;;;;;;2.10;2.00;;;22.50;78.40;;;;;;4954957;29;20412;-68
2023/04/30 08:35:34;;;;;;;2.30;2.10;;;22.40;78.60;;;;;;4955128;28;20688;-70
2023/04/30 08:38:00;;;;;;;2.10;2.00;;;22.20;78.20;;;;;;4954843;29;20182;-68
2023/04/30 08:40:26;;;;;;;2.33;2.13;;;21.70;78.00;;;;;;4955292;29;20184;-68
2023/04/30 08:43:08;;;;;;;2.17;2.07;;;21.10;79.70;;;;;;4955310;29;20580;-69
2023/04/30 08:45:40;;;;;;;2.00;1.90;;;20.40;80.80;;;;;;4955030;28;20462;-69
2023/04/30 08:48:10;;;;;;;1.60;1.50;;;19.90;82.40;;;;;;4955302;29;20421;-68
2023/04/30 08:50:35;;;;;;;1.70;1.60;;;19.20;82.60;;;;;;4955176;29;20395;-69
2023/04/30 08:53:01;;;;;;;1.40;1.30;;;18.60;84.50;;;;;;4946233;29;20404;-69
2023/04/30 08:55:28;;;;;;;1.63;1.53;;;18.30;85.30;;;;;;4935661;29;20206;-68
2023/04/30 08:57:53;;;;;;;2.07;1.87;;;18.10;87.00;;;;;;4936033;29;20410;-68
2023/04/30 09:00:19;;;;;;;1.93;1.80;;;17.80;84.80;;;;;;4936279;29;20412;-69
2023/04/30 09:02:46;;;;;;;1.50;1.40;;;17.70;84.50;;;;;;4935769;29;20232;-68
2023/04/30 09:05:13;;;;;;;1.63;1.53;;;17.70;82.20;;;;;;4935406;29;20212;-71
2023/04/30 09:07:41;;;;;;;1.20;1.20;;;17.90;81.30;;;;;;4937374;29;20525;-68
2023/04/30 09:10:30;;;;;;;1.87;1.77;;;18.10;81.80;;;;;;4937589;29;20427;-67
2023/04/30 09:13:01;;;;;;;1.33;1.23;;;18.30;82.10;;;;;;4955326;29;20407;-69
2023/04/30 09:15:27;;;;;;;1.27;1.00;;;18.50;80.80;;;;;;4954546;28;20467;-69
2023/04/30 09:18:05;;;;;;;1.13;1.13;;;18.80;80.40;;;;;;4954926;29;20376;-69
2023/04/30 09:20:31;;;;;;;1.63;1.40;;;18.80;79.70;;;;;;4954998;29;20404;-69
2023/04/30 09:23:08;;;;;;;1.37;1.37;;;18.80;80.30;;;;;;4943066;29;20428;-69
2023/04/30 09:25:43;;;;;;;1.47;1.37;;;18.60;81.20;;;;;;4939631;29;20224;-68
2023/04/30 09:28:12;;;;;;;1.57;1.47;;;18.30;81.90;;;;;;4939424;29;20391;-68
2023/04/30 09:30:39;;;;;;;1.23;1.13;;;18.30;83.00;;;;;;4939440;29;20376;-69
2023/04/30 09:33:05;;;;;;;1.60;1.50;;;18.50;82.80;;;;;;4939252;29;20480;-68
2023/04/30 09:35:33;;;;;;;1.03;1.03;;;19.00;81.60;;;;;;4939163;29;20429;-69
2023/04/30 09:38:02;;;;;;;1.43;1.33;;;19.20;80.40;;;;;;4938977;29;20969;-70
2023/04/30 09:40:39;;;;;;;1.67;1.23;;;19.30;80.50;;;;;;4958436;29;20412;-69
2023/04/30 09:43:06;;;;;;;1.30;1.20;;;19.80;79.70;;;;;;4958241;29;20785;-68
2023/04/30 09:45:48;;;;;;;1.10;1.10;;;20.20;78.70;;;;;;4958459;28;20421;-69
2023/04/30 09:48:22;;;;;;;1.30;1.17;;;20.50;76.90;;;;;;4958208;29;20409;-68
2023/04/30 09:50:48;;;;;;;1.23;1.13;;;20.40;75.70;;;;;;4957832;29;20379;-69
2023/04/30 09:53:16;;;;;;;1.60;1.50;;;20.20;75.80;;;;;;4957695;29;20387;-68
2023/04/30 09:55:51;;;;;;;1.10;0.97;;;19.90;75.90;;;;;;4957906;28;20403;-68
2023/04/30 09:58:18;;;;;;;1.20;1.20;;;19.60;78.30;;;;;;4958186;29;20467;-69
2023/04/30 10:00:49;;;;;;;2.23;2.13;;;19.90;77.60;;;;;;4957912;29;20405;-70
2023/04/30 10:03:15;;;;;;;1.43;1.33;;;20.40;77.00;;;;;;4957504;29;20433;-69
2023/04/30 10:05:46;;;;;;;1.33;1.10;;;20.50;75.80;;;;;;4921429;29;20439;-67
2023/04/30 10:08:30;;;;;;;1.47;1.37;;;20.60;75.20;;;;;;4938809;29;20414;-70
2023/04/30 10:11:03;;;;;;;1.10;1.10;;;20.80;75.50;;;;;;4938790;29;20791;-70
2023/04/30 10:13:58;;;;;;;1.40;1.30;;;21.20;73.20;;;;;;4938469;29;20395;-69
2023/04/30 10:16:36;;;;;;;1.40;1.30;;;21.10;73.50;;;;;;4932968;29;20746;-69
2023/04/30 10:19:19;;;;;;;2.00;1.80;;;20.70;74.20;;;;;;4938745;29;20483;-69
2023/04/30 10:21:46;;;;;;;2.37;2.17;;;20.20;74.70;;;;;;4952255;29;20395;-69
2023/04/30 10:24:13;;;;;;;1.70;1.60;;;19.70;74.70;;;;;;4927010;29;20493;-69
2023/04/30 10:26:40;;;;;;;1.13;1.13;;;19.30;76.80;;;;;;4938406;29;20402;-69
2023/04/30 10:29:06;;;;;;;1.70;1.60;;;18.80;77.70;;;;;;4938490;29;20377;-69
2023/04/30 10:31:33;;;;;;;2.10;1.90;;;18.70;79.60;;;;;;4938557;29;20414;-70
2023/04/30 10:34:16;;;;;;;2.10;2.00;;;18.50;79.50;;;;;;4937790;29;20414;-69
2023/04/30 10:36:47;;;;;;;1.90;1.77;;;18.40;81.20;;;;;;4953160;29;20455;-68
2023/04/30 10:39:16;;;;;;;2.33;2.17;;;18.30;79.70;;;;;;4957556;29;20482;-69
2023/04/30 10:41:46;;;;;;;1.63;1.53;;;18.10;79.90;;;;;;4957466;29;20384;-68
2023/04/30 10:44:11;;;;;;;2.40;1.60;;;17.80;81.30;;;;;;4956775;28;20526;-69
2023/04/30 10:46:37;;;;;;;2.60;2.40;;;17.70;81.40;;;;;;4939986;29;20501;-68
2023/04/30 10:49:03;;;;;;;2.10;1.90;;;17.70;81.90;;;;;;4956915;29;20185;-69
2023/04/30 10:51:45;;;;;;;1.90;1.80;;;17.80;82.10;;;;;;4957368;29;20408;-68
2023/04/30 10:54:12;;;;;;;1.83;1.73;;;17.80;82.90;;;;;;4956906;28;20555;-69
2023/04/30 10:56:38;;;;;;;2.50;2.30;;;17.90;82.60;;;;;;4957375;29;20404;-69
2023/04/30 10:59:04;;;;;;;1.80;1.70;;;18.00;82.60;;;;;;4957041;29;20945;-69
2023/04/30 11:01:30;;;;;;;2.07;1.97;;;18.00;81.70;;;;;;4950548;29;20424;-67
2023/04/30 11:04:10;;;;;;;1.90;1.80;;;18.00;83.20;;;;;;4937354;29;20204;-69
2023/04/30 11:07:00;;;;;;;1.80;1.70;;;18.00;82.50;;;;;;4937607;29;20667;-69
2023/04/30 11:09:38;;;;;;;1.67;1.57;;;18.00;82.50;;;;;;4937814;29;20437;-68
2023/04/30 11:12:10;;;;;;;1.40;1.30;;;18.00;82.30;;;;;;4920512;29;20928;-69
2023/04/30 11:14:41;;;;;;;2.00;1.90;;;18.00;83.40;;;;;;4920112;29;20433;-69
2023/04/30 11:17:06;;;;;;;3.53;2.83;;;17.90;83.90;;;;;;4932885;29;20433;-68
2023/04/30 11:19:33;;;;;;;1.80;1.70;;;17.90;83.00;;;;;;4939538;29;20417;-69
2023/04/30 11:22:04;;;;;;;1.40;1.30;;;17.80;82.90;;;;;;4956552;29;20251;-70
2023/04/30 11:24:53;;;;;;;1.60;1.50;;;17.80;83.30;;;;;;4955781;28;20467;-69
2023/04/30 11:27:26;;;;;;;2.07;1.97;;;17.80;82.80;;;;;;4956601;29;20978;-70
2023/04/30 11:29:53;;;;;;;1.63;1.53;;;17.80;82.50;;;;;;4956718;29;20965;-69
2023/04/30 11:32:20;;;;;;;1.97;1.87;;;17.90;84.30;;;;;;4956359;29;20463;-70
2023/04/30 11:34:46;;;;;;;2.30;2.10;;;18.00;83.90;;;;;;4955986;28;20435;-68
2023/04/30 11:37:30;;;;;;;2.27;2.00;;;18.10;83.40;;;;;;4956222;29;20444;-69
2023/04/30 11:40:07;;;;;;;1.40;1.30;;;18.30;83.00;;;;;;4945266;29;20405;-69
2023/04/30 11:42:33;;;;;;;1.43;1.33;;;18.40;82.10;;;;;;4937541;29;20790;-70
2023/04/30 11:45:11;;;;;;;1.23;1.20;;;18.60;83.90;;;;;;4937324;29;20461;-70
2023/04/30 11:47:42;;;;;;;1.80;1.70;;;18.70;82.90;;;;;;4938220;29;20397;-68
2023/04/30 11:50:13;;;;;;;1.40;1.30;;;18.70;80.90;;;;;;4947300;29;20412;-67
2023/04/30 11:52:40;;;;;;;1.30;1.20;;;18.60;81.70;;;;;;4956281;29;20459;-68
2023/04/30 11:55:17;;;;;;;1.70;1.60;;;18.50;81.40;;;;;;4938792;29;20444;-69
2023/04/30 11:57:45;;;;;;;1.70;1.60;;;18.40;81.70;;;;;;4956155;29;20495;-69
2023/04/30 12:00:12;;;;;;;1.50;1.50;;;18.40;82.00;;;;;;4956059;29;20380;-69
2023/04/30 12:02:38;;;;;;;1.37;1.27;;;18.40;83.80;;;;;;4955905;29;20479;-68
2023/04/30 12:05:05;;;;;;;1.40;1.30;;;18.50;82.80;;;;;;4944156;29;20461;-69
2023/04/30 12:07:31;;;;;;;1.70;1.60;;;18.50;81.60;;;;;;4919381;29;20437;-67
2023/04/30 12:09:58;;;;;;;1.63;1.53;;;18.50;82.10;;;;;;4936516;29;20406;-70
2023/04/30 12:12:28;;;;;;;1.80;1.70;;;18.60;81.50;;;;;;4937563;29;20173;-70
2023/04/30 12:14:54;;;;;;;1.57;1.47;;;18.70;81.80;;;;;;4950032;28;20538;-69
2023/04/30 12:17:35;;;;;;;1.47;1.37;;;18.70;81.90;;;;;;4956699;29;20436;-69
2023/04/30 12:20:00;;;;;;;1.37;1.27;;;18.80;81.50;;;;;;4956010;29;20408;-69
2023/04/30 12:22:27;;;;;;;2.87;1.97;;;18.90;81.20;;;;;;4955556;29;20938;-69
2023/04/30 12:24:55;;;;;;;2.03;1.80;;;18.80;81.50;;;;;;4954938;28;20208;-71
2023/04/30 12:27:21;;;;;;;1.40;1.40;;;18.60;81.70;;;;;;4955625;29;20438;-69
2023/04/30 12:29:48;;;;;;;1.43;1.30;;;18.50;82.00;;;;;;4955218;29;20771;-69
2023/04/30 12:32:17;;;;;;;1.77;1.67;;;18.50;81.60;;;;;;4938088;29;20396;-70
2023/04/30 12:34:43;;;;;;;1.60;1.53;;;18.50;82.70;;;;;;4954738;28;20415;-68
2023/04/30 12:37:09;;;;;;;2.13;1.50;;;18.60;82.60;;;;;;4955202;29;20464;-68
2023/04/30 12:39:35;;;;;;;1.67;1.57;;;18.70;81.50;;;;;;4955458;29;20925;-69
2023/04/30 12:42:03;;;;;;;1.53;1.43;;;18.80;81.20;;;;;;4955151;29;20819;-69
2023/04/30 12:44:28;;;;;;;2.37;1.80;;;18.70;82.40;;;;;;4940218;29;20447;-69
2023/04/30 12:46:56;;;;;;;1.37;1.27;;;18.80;82.50;;;;;;4936256;29;20387;-69
2023/04/30 12:49:34;;;;;;;1.77;1.67;;;18.80;82.90;;;;;;4936004;29;20169;-68
2023/04/30 12:52:11;;;;;;;1.60;1.50;;;18.80;82.10;;;;;;4936504;29;20497;-68
2023/04/30 12:54:38;;;;;;;3.00;2.20;;;18.80;81.30;;;;;;4935830;29;20429;-71
2023/04/30 12:57:05;;;;;;;1.90;1.70;;;18.70;81.40;;;;;;4936195;29;20780;-68
2023/04/30 12:59:39;;;;;;;2.40;1.47;;;18.60;81.90;;;;;;4939057;29;20569;-68
2023/04/30 13:02:13;;;;;;;1.80;1.70;;;18.40;82.90;;;;;;4942120;29;20418;-70
2023/04/30 13:04:41;;;;;;;1.43;1.40;;;18.30;82.10;;;;;;4922543;29;20479;-68
2023/04/30 13:07:07;;;;;;;1.70;1.60;;;18.30;82.50;;;;;;4922745;29;20463;-69
2023/04/30 13:09:33;;;;;;;1.20;1.20;;;18.30;82.50;;;;;;4939953;29;20401;-68
2023/04/30 13:12:00;;;;;;;1.87;1.77;;;18.30;82.30;;;;;;4939828;29;20198;-68
2023/04/30 13:14:26;;;;;;;1.53;1.43;;;18.40;82.60;;;;;;4954545;28;20484;-69
2023/04/30 13:16:52;;;;;;;1.80;1.70;;;18.50;83.60;;;;;;4941611;29;20889;-68
2023/04/30 13:19:18;;;;;;;1.90;1.80;;;18.70;83.20;;;;;;4958957;29;20471;-70
2023/04/30 13:21:44;;;;;;;2.00;1.90;;;18.80;82.70;;;;;;4958809;29;20413;-68
2023/04/30 13:24:09;;;;;;;1.80;1.70;;;18.80;80.90;;;;;;4958230;28;21003;-69
2023/04/30 13:26:35;;;;;;;1.50;1.40;;;18.80;81.40;;;;;;4958246;29;20173;-69
2023/04/30 13:29:03;;;;;;;1.83;1.73;;;18.70;81.60;;;;;;4958656;29;20180;-69
2023/04/30 13:31:28;;;;;;;1.57;1.47;;;18.80;81.90;;;;;;4958585;29;20379;-67
2023/04/30 13:33:54;;;;;;;1.87;1.50;;;18.80;81.20;;;;;;4958106;28;20890;-69
2023/04/30 13:36:20;;;;;;;1.40;1.30;;;18.90;80.00;;;;;;4958855;29;20417;-70
2023/04/30 13:38:46;;;;;;;1.60;1.50;;;18.70;80.80;;;;;;4958541;29;20300;-68
2023/04/30 13:41:12;;;;;;;1.67;1.57;;;18.70;81.70;;;;;;4958526;29;20589;-68
2023/04/30 13:43:40;;;;;;;1.90;1.80;;;18.60;79.50;;;;;;4939012;29;20813;-67
2023/04/30 13:46:05;;;;;;;2.70;1.70;;;18.50;80.20;;;;;;4939051;29;20467;-69
2023/04/30 13:48:31;;;;;;;1.03;1.03;;;18.30;81.20;;;;;;4939270;29;20896;-68
2023/04/30 13:50:57;;;;;;;1.53;1.43;;;18.20;81.50;;;;;;4939022;29;20652;-68
2023/04/30 13:53:23;;;;;;;1.77;1.63;;;18.10;81.10;;;;;;4938856;29;20195;-67
2023/04/30 13:55:48;;;;;;;1.63;1.53;;;18.10;81.60;;;;;;4939127;29;20197;-67
2023/04/30 13:58:15;;;;;;;1.50;1.37;;;18.10;81.80;;;;;;4940000;29;20213;-69
2023/04/30 14:00:40;;;;;;;1.20;1.20;;;18.20;81.00;;;;;;4938988;29;20197;-69
2023/04/30 14:03:07;;;;;;;2.20;2.10;;;18.20;80.90;;;;;;4938471;29;20417;-68
2023/04/30 14:05:32;;;;;;;1.50;1.40;;;18.20;80.00;;;;;;4921537;29;20213;-69
2023/04/30 14:07:58;;;;;;;2.20;2.00;;;18.30;81.00;;;;;;4938826;29;20424;-68
2023/04/30 14:10:23;;;;;;;1.43;1.30;;;18.40;80.50;;;;;;4938508;29;20181;-69
2023/04/30 14:12:50;;;;;;;1.23;1.20;;;18.50;80.40;;;;;;4954707;29;20181;-68
2023/04/30 14:15:15;;;;;;;1.50;1.43;;;18.60;80.90;;;;;;4957325;28;20262;-68
2023/04/30 14:17:41;;;;;;;2.40;1.40;;;18.70;81.20;;;;;;4957728;29;20404;-69
2023/04/30 14:20:07;;;;;;;1.70;1.60;;;18.70;80.90;;;;;;4957715;29;20177;-69
2023/04/30 14:22:37;;;;;;;1.37;1.37;;;18.70;80.10;;;;;;4957769;29;20180;-70
2023/04/30 14:25:03;;;;;;;1.60;1.50;;;18.70;80.20;;;;;;4937940;29;20476;-68
2023/04/30 14:27:29;;;;;;;1.80;1.70;;;18.60;80.40;;;;;;4938738;29;20405;-69
2023/04/30 14:29:55;;;;;;;1.93;1.83;;;18.40;79.60;;;;;;4938628;29;20733;-68
2023/04/30 14:32:23;;;;;;;1.47;1.37;;;18.30;80.80;;;;;;4938577;29;20420;-69
2023/04/30 14:34:49;;;;;;;2.00;1.50;;;18.20;81.50;;;;;;4937852;29;20203;-69
2023/04/30 14:37:15;;;;;;;1.43;1.33;;;18.20;81.60;;;;;;4938295;29;20413;-68
2023/04/30 14:39:41;;;;;;;3.27;3.10;;;18.20;81.10;;;;;;4951858;29;20181;-68
2023/04/30 14:42:07;;;;;;;1.83;1.73;;;18.30;81.30;;;;;;4957248;29;20452;-68
2023/04/30 14:44:33;;;;;;;1.73;1.63;;;18.40;82.20;;;;;;4956843;28;20468;-68
2023/04/30 14:46:59;;;;;;;2.20;1.53;;;18.50;81.60;;;;;;4957385;29;20811;-68
2023/04/30 14:49:25;;;;;;;1.80;1.70;;;18.50;81.10;;;;;;4940107;29;20177;-67
2023/04/30 14:51:51;;;;;;;1.57;1.47;;;18.40;81.20;;;;;;4957080;29;20479;-70
2023/04/30 14:54:16;;;;;;;1.53;1.43;;;18.30;81.10;;;;;;4939191;29;20507;-69
2023/04/30 14:56:43;;;;;;;2.13;1.67;;;18.10;81.10;;;;;;4937889;29;20660;-69
2023/04/30 14:59:09;;;;;;;1.87;1.67;;;18.00;82.50;;;;;;4938044;29;20310;-69
2023/04/30 15:01:34;;;;;;;1.57;1.47;;;18.00;83.10;;;;;;4937806;29;20479;-69
2023/04/30 15:04:00;;;;;;;1.93;1.83;;;18.10;83.30;;;;;;4937245;29;20927;-69
2023/04/30 15:06:26;;;;;;;2.10;1.60;;;18.10;82.90;;;;;;4937650;29;20193;-69
2023/04/30 15:08:52;;;;;;;2.13;1.93;;;18.10;82.50;;;;;;4936607;29;20428;-70
2023/04/30 15:11:17;;;;;;;1.63;1.53;;;18.10;82.20;;;;;;4956962;29;20205;-69
2023/04/30 15:13:43;;;;;;;1.30;1.30;;;18.10;81.60;;;;;;4956417;29;20177;-69
2023/04/30 15:16:08;;;;;;;1.90;1.80;;;18.10;82.20;;;;;;4939509;29;20207;-69
2023/04/30 15:18:34;;;;;;;1.83;1.73;;;18.10;81.70;;;;;;4956662;29;20173;-69
2023/04/30 15:21:00;;;;;;;1.63;1.53;;;18.00;81.60;;;;;;4956130;28;20534;-69
2023/04/30 15:23:26;;;;;;;1.57;1.47;;;18.00;81.60;;;;;;4941214;29;20618;-69
2023/04/30 15:25:52;;;;;;;2.60;2.40;;;18.00;82.30;;;;;;4920267;29;20455;-68
2023/04/30 15:28:18;;;;;;;1.80;1.70;;;18.00;83.20;;;;;;4937438;29;20178;-68
2023/04/30 15:30:44;;;;;;;1.80;1.70;;;18.10;83.10;;;;;;4937542;29;20320;-68
2023/04/30 15:33:11;;;;;;;2.40;2.20;;;18.10;82.50;;;;;;4919786;29;20232;-68
2023/04/30 15:35:36;;;;;;;1.50;1.40;;;18.10;82.60;;;;;;4937215;29;20407;-68
2023/04/30 15:38:02;;;;;;;2.40;1.93;;;18.10;83.00;;;;;;4920184;29;20400;-68
2023/04/30 15:40:27;;;;;;;2.17;2.07;;;18.00;83.10;;;;;;4937077;29;20176;-68
2023/04/30 15:42:53;;;;;;;1.77;1.67;;;18.00;82.00;;;;;;4936941;29;20176;-69
2023/04/30 15:45:19;;;;;;;1.70;1.60;;;17.90;82.30;;;;;;4936686;29;20216;-68
2023/04/30 15:47:45;;;;;;;2.20;2.00;;;17.80;81.50;;;;;;4937088;29;20578;-67
2023/04/30 15:50:11;;;;;;;1.40;1.30;;;17.70;82.90;;;;;;4949780;29;20423;-68
2023/04/30 15:52:36;;;;;;;2.50;2.30;;;17.60;83.60;;;;;;4938931;29;20465;-69
2023/04/30 15:55:02;;;;;;;1.80;1.70;;;17.70;83.30;;;;;;4955518;28;20199;-69
2023/04/30 15:57:28;;;;;;;2.17;2.07;;;17.70;83.40;;;;;;4938788;29;20180;-69
2023/04/30 15:59:53;;;;;;;2.03;1.83;;;17.80;82.60;;;;;;4955929;29;20188;-68
2023/04/30 16:02:19;;;;;;;1.60;1.50;;;17.70;83.60;;;;;;4956082;29;20316;-68
2023/04/30 16:04:45;;;;;;;2.00;1.90;;;17.80;83.60;;;;;;4937633;29;20218;-68
2023/04/30 16:07:11;;;;;;;2.20;1.70;;;17.80;83.50;;;;;;4955489;29;20436;-69
2023/04/30 16:09:37;;;;;;;1.67;1.57;;;17.80;83.80;;;;;;4955776;29;20169;-68
2023/04/30 16:12:03;;;;;;;1.60;1.50;;;17.80;84.30;;;;;;4955771;29;20182;-69
2023/04/30 16:14:29;;;;;;;2.10;2.00;;;17.70;84.10;;;;;;4955213;28;20421;-69
2023/04/30 16:16:55;;;;;;;1.53;1.30;;;17.70;84.70;;;;;;4955726;29;20411;-69
2023/04/30 16:19:21;;;;;;;2.00;1.80;;;17.60;84.60;;;;;;4940966;29;20508;-68
2023/04/30 16:21:47;;;;;;;1.83;1.73;;;17.60;84.80;;;;;;4936513;29;20794;-69
2023/04/30 16:24:14;;;;;;;1.73;1.63;;;17.60;85.00;;;;;;4935985;29;20213;-68
2023/04/30 16:26:40;;;;;;;1.63;1.53;;;17.60;84.40;;;;;;4936159;29;20175;-68
2023/04/30 16:29:05;;;;;;;2.00;1.90;;;17.50;84.70;;;;;;4919516;29;20401;-69
2023/04/30 16:31:31;;;;;;;1.50;1.40;;;17.50;84.40;;;;;;4936356;29;20171;-69
2023/04/30 16:33:57;;;;;;;1.67;1.57;;;17.50;84.30;;;;;;4918848;29;20239;-67
2023/04/30 16:36:22;;;;;;;1.50;1.50;;;17.40;84.20;;;;;;4936353;29;20209;-68
2023/04/30 16:38:48;;;;;;;1.77;1.67;;;17.40;84.30;;;;;;4936130;29;20672;-69
2023/04/30 16:41:15;;;;;;;2.10;2.00;;;17.30;84.30;;;;;;4936215;29;20188;-69
2023/04/30 16:43:44;;;;;;;2.10;2.00;;;17.30;84.30;;;;;;4935674;29;20294;-69
2023/04/30 16:46:10;;;;;;;2.90;2.13;;;17.30;85.20;;;;;;4936223;29;20403;-69
2023/04/30 16:48:36;;;;;;;1.83;1.73;;;17.20;84.40;;;;;;4936183;29;20745;-69
2023/04/30 16:51:02;;;;;;;1.97;1.87;;;17.20;84.50;;;;;;4936204;29;20179;-68
2023/04/30 16:53:28;;;;;;;1.57;1.47;;;17.10;85.00;;;;;;4935647;29;20413;-69